»·PEaware :: N71FS KBUR-KLAS

N71FS :: KBUR-KLAS

FLIGHT INFORMATION

Flight Status: Arrived
Operator: Privately registered:
United States
More flights under this callsign
Pilot: Harold D. (14724)
Aircraft: BEECH AIRCRAFT BARON
(BE58)
More flights by this aircraft type
Origin: KBUR Bob Hope-Burbank
United States
Destination: KLAS McCarran Intl
United States
More flights between these airports :: More routes between these airports
Route: +VNY3 DAG CRESO3
File this flight plan on PilotEdge
Remarks: I-5 Rating Flight
Altitude:
(Current/Filed)
4,000ft
Speed:
(Current/Filed)
300kts
Departed: 20-Mar-17 06:23 PM
Arrived: 20-Mar-17 07:44 PM
Distance/Time
Traveled:
193nm/1:21
Distance/Time
To Go:
Arrived

Flight Plot

Page will automatically refresh every two minutes.


Map Options




Map Legend


Flown Route
Filed Route
Departure Airport
Arrival Airport
Navaid (VOR, NDB)
Fix

Horizontal Profiles

Position Reports

Time Latitude Longitude Heading Altitude Ground
Speed
20-Mar-17 18:09 34.196133 -118.366760 180 724ft 0kts
20-Mar-17 18:10 34.196133 -118.366760 180 724ft 0kts
20-Mar-17 18:11 34.196133 -118.366760 180 724ft 0kts
20-Mar-17 18:12 34.196133 -118.366760 180 724ft 0kts
20-Mar-17 18:13 34.196133 -118.366760 180 724ft 0kts
20-Mar-17 18:14 34.196133 -118.366760 180 724ft 0kts
20-Mar-17 18:15 34.196133 -118.366760 180 724ft 0kts
20-Mar-17 18:16 34.196133 -118.366760 180 724ft 0kts
20-Mar-17 18:17 34.196133 -118.366760 180 724ft 0kts
20-Mar-17 18:18 34.196133 -118.366760 180 724ft 0kts
20-Mar-17 18:19 34.196278 -118.366845 359 724ft 2kts
20-Mar-17 18:20 34.197231 -118.369043 4 724ft 5kts
20-Mar-17 18:21 34.197252 -118.369040 5 724ft 0kts
20-Mar-17 18:22 34.197252 -118.369040 5 724ft 0kts
20-Mar-17 18:23 34.197252 -118.369040 5 724ft 0kts
20-Mar-17 18:24 34.197836 -118.367155 102 724ft 43kts
20-Mar-17 18:25 34.188776 -118.334715 171 1378ft 133kts
20-Mar-17 18:26 34.158723 -118.364313 225 2453ft 150kts
20-Mar-17 18:27 34.129231 -118.400977 225 3454ft 152kts
20-Mar-17 18:28 34.117142 -118.442361 319 4431ft 156kts
20-Mar-17 18:29 34.159911 -118.451303 352 5448ft 155kts
20-Mar-17 18:30 34.202493 -118.456959 352 6429ft 152kts
20-Mar-17 18:31 34.243743 -118.462010 352 7405ft 145kts
20-Mar-17 18:32 34.282912 -118.466006 351 8366ft 136kts
20-Mar-17 18:33 34.322214 -118.469344 352 8981ft 149kts
20-Mar-17 18:34 34.365116 -118.471583 13 9460ft 161kts
20-Mar-17 18:35 34.398759 -118.436885 51 10018ft 161kts
20-Mar-17 18:36 34.425631 -118.393070 54 10516ft 163kts
20-Mar-17 18:37 34.453046 -118.349202 54 10981ft 166kts
20-Mar-17 18:38 34.483128 -118.301226 54 10994ft 188kts
20-Mar-17 18:39 34.515431 -118.249641 54 10994ft 195kts
20-Mar-17 18:40 34.548465 -118.196877 54 10974ft 197kts
20-Mar-17 18:41 34.581630 -118.143774 54 10968ft 197kts
20-Mar-17 18:42 34.614734 -118.090665 54 10966ft 197kts
20-Mar-17 18:43 34.634392 -118.030423 84 10967ft 192kts
20-Mar-17 18:44 34.642120 -117.966310 87 10965ft 192kts
20-Mar-17 18:45 34.649157 -117.902185 87 10954ft 191kts
20-Mar-17 18:46 34.656111 -117.838139 87 10941ft 191kts
20-Mar-17 18:47 34.663394 -117.774059 83 10945ft 191kts
20-Mar-17 18:48 34.677798 -117.711318 76 10936ft 194kts
20-Mar-17 18:49 34.693687 -117.648866 76 10939ft 193kts
20-Mar-17 18:50 34.709641 -117.586438 76 10945ft 193kts
20-Mar-17 18:51 34.725636 -117.523787 76 10945ft 195kts
20-Mar-17 18:52 34.741635 -117.461011 76 10954ft 193kts
20-Mar-17 18:53 34.757561 -117.398377 76 10949ft 193kts
20-Mar-17 18:54 34.773406 -117.335893 76 10950ft 193kts
20-Mar-17 18:55 34.789225 -117.273356 76 10954ft 194kts
20-Mar-17 18:56 34.805115 -117.210391 76 10941ft 194kts
20-Mar-17 18:57 34.820935 -117.147557 76 10932ft 194kts
20-Mar-17 18:58 34.836733 -117.084625 76 10917ft 195kts
20-Mar-17 18:59 34.852501 -117.021693 76 10896ft 194kts
20-Mar-17 19:00 34.868289 -116.958492 76 10868ft 194kts
20-Mar-17 19:01 34.883902 -116.895876 76 10868ft 193kts
20-Mar-17 19:02 34.899422 -116.833492 76 10855ft 192kts
20-Mar-17 19:03 34.914863 -116.771195 76 10863ft 192kts
20-Mar-17 19:04 34.930265 -116.708969 76 10860ft 192kts
20-Mar-17 19:05 34.943885 -116.653793 76 10879ft 191kts
20-Mar-17 19:06 34.959332 -116.591750 73 10886ft 192kts
20-Mar-17 19:07 34.982879 -116.532676 64 10890ft 194kts
20-Mar-17 19:08 35.008587 -116.474620 63 10897ft 194kts
20-Mar-17 19:09 35.034444 -116.416302 64 10897ft 195kts
20-Mar-17 19:10 35.060188 -116.358289 64 10900ft 194kts
20-Mar-17 19:11 35.085935 -116.300104 64 10897ft 194kts
20-Mar-17 19:12 35.111588 -116.242018 64 10896ft 194kts
20-Mar-17 19:13 35.137209 -116.183901 64 10898ft 194kts
20-Mar-17 19:14 35.162926 -116.125456 64 10888ft 194kts
20-Mar-17 19:15 35.188541 -116.067158 64 10884ft 195kts
20-Mar-17 19:16 35.214137 -116.008801 64 10878ft 195kts
20-Mar-17 19:17 35.239750 -115.950304 65 10893ft 193kts
20-Mar-17 19:18 35.264587 -115.893481 65 11046ft 190kts
20-Mar-17 19:19 35.289631 -115.836032 65 11040ft 192kts
20-Mar-17 19:20 35.317493 -115.779124 53 10867ft 204kts
20-Mar-17 19:21 35.356464 -115.725978 48 10370ft 213kts
20-Mar-17 19:22 35.396665 -115.672534 48 9921ft 211kts
20-Mar-17 19:23 35.435354 -115.620899 49 9856ft 200kts
20-Mar-17 19:24 35.472530 -115.571153 49 9848ft 196kts
20-Mar-17 19:25 35.509239 -115.521958 49 9845ft 195kts
20-Mar-17 19:26 35.545861 -115.472920 49 9846ft 195kts
20-Mar-17 19:27 35.582521 -115.423679 49 9843ft 194kts
20-Mar-17 19:28 35.618975 -115.374656 49 9850ft 194kts
20-Mar-17 19:29 35.655485 -115.325504 49 9840ft 195kts
20-Mar-17 19:30 35.692041 -115.276183 49 9854ft 195kts
20-Mar-17 19:31 35.728541 -115.226861 49 9853ft 195kts
20-Mar-17 19:32 35.765168 -115.177283 50 9853ft 196kts
20-Mar-17 19:33 35.801850 -115.127638 50 9847ft 195kts
20-Mar-17 19:34 35.838507 -115.078111 48 9853ft 197kts
20-Mar-17 19:35 35.895094 -115.063629 2 9011ft 223kts
20-Mar-17 19:36 35.957917 -115.057902 2 8021ft 228kts
20-Mar-17 19:37 36.015096 -115.052662 2 7294ft 185kts
20-Mar-17 19:38 36.063909 -115.048398 2 6843ft 165kts
20-Mar-17 19:39 36.105847 -115.044601 2 6635ft 144kts
20-Mar-17 19:40 36.140368 -115.050318 285 5597ft 115kts
20-Mar-17 19:41 36.153496 -115.086918 291 4493ft 127kts
20-Mar-17 19:42 36.143194 -115.119483 232 3567ft 104kts
20-Mar-17 19:43 36.123779 -115.143592 198 2798ft 101kts
20-Mar-17 19:44 36.098709 -115.156831 207 2196ft 93kts
20-Mar-17 19:45 36.089087 -115.162556 296 2118ft 8kts
20-Mar-17 19:46 36.089442 -115.163585 294 2118ft 8kts
20-Mar-17 19:47 36.087692 -115.165590 203 2118ft 12kts
20-Mar-17 19:48 36.087274 -115.166706 295 2118ft 0kts

Navigation Log

Ident Type
1. KBUR Airport
2. VNY Navaid
3. VNY Navaid
4. IPIHO Fix
5. TWINE Fix
6. LANGE Fix
7. SLAPP Fix
8. BOGET Fix
9. PMD Navaid
10. ETHER Fix
11. DAG Navaid
12. DAG Navaid
13. JOKUR Fix
14. DANBY Fix
15. SARAS Fix
16. WHIGG Fix
17. CRESO Fix
18. BLD Navaid
19. KLAS Airport